createdAt,value
2022-09-04T00:05:23.448Z,9.30
2022-09-04T00:10:30.516Z,8.50
2022-09-04T00:15:43.906Z,8.95
2022-09-04T00:20:56.512Z,9.52
2022-09-04T00:26:08.576Z,9.30
2022-09-04T00:31:24.524Z,8.40
2022-09-04T00:36:28.124Z,7.93
2022-09-04T00:41:39.004Z,6.70
2022-09-04T00:47:18.278Z,7.68
2022-09-04T00:53:02.959Z,7.43
2022-09-04T00:58:23.243Z,8.43
2022-09-04T01:03:44.265Z,7.63
2022-09-04T01:09:17.512Z,6.88
2022-09-04T01:14:33.468Z,7.47
2022-09-04T01:20:04.006Z,7.85
2022-09-04T01:25:20.570Z,6.25
2022-09-04T01:30:23.072Z,5.95
2022-09-04T01:35:34.231Z,6.03
2022-09-04T01:40:49.443Z,4.65
2022-09-04T01:46:17.139Z,6.60
2022-09-04T01:51:39.994Z,6.85
2022-09-04T01:56:51.190Z,7.07
2022-09-04T02:01:57.507Z,6.85
2022-09-04T02:07:14.735Z,9.05
2022-09-04T02:12:51.100Z,12.00
2022-09-04T02:18:19.863Z,9.25
2022-09-04T02:29:20.291Z,8.48
2022-09-04T02:34:42.296Z,9.23
2022-09-04T02:39:56.370Z,8.80
2022-09-04T02:45:07.248Z,7.95
2022-09-04T02:50:38.526Z,8.82
2022-09-04T02:56:10.092Z,9.05
2022-09-04T03:01:24.292Z,9.88
2022-09-04T03:06:42.037Z,10.90
2022-09-04T03:11:55.282Z,11.20
2022-09-04T03:17:23.739Z,11.00
2022-09-04T03:23:19.648Z,14.13
2022-09-04T03:28:27.723Z,11.15
2022-09-04T03:33:48.353Z,8.70
2022-09-04T03:39:20.456Z,7.40
2022-09-04T03:44:53.179Z,7.47
2022-09-04T03:50:10.235Z,19.33
2022-09-04T03:55:23.677Z,16.40
2022-09-04T04:00:25.594Z,13.10
2022-09-04T04:05:48.420Z,13.32
2022-09-04T04:10:57.019Z,28.25
2022-09-04T04:16:50.328Z,17.98
2022-09-04T04:22:19.279Z,11.93
2022-09-04T04:28:07.247Z,6.45
2022-09-04T04:33:38.323Z,5.38
2022-09-04T04:38:50.335Z,5.38
2022-09-04T04:44:13.293Z,5.82
2022-09-04T04:49:39.846Z,5.00
2022-09-04T04:54:54.399Z,5.15
2022-09-04T05:00:11.758Z,4.88
2022-09-04T05:05:26.758Z,5.43
2022-09-04T05:10:49.282Z,4.60
2022-09-04T05:16:11.581Z,4.88
2022-09-04T05:21:25.072Z,3.95
2022-09-04T05:26:38.666Z,3.70
2022-09-04T05:31:56.655Z,2.88
2022-09-04T05:37:16.997Z,2.60
2022-09-04T05:42:54.454Z,2.50
2022-09-04T05:48:14.260Z,2.90
2022-09-04T05:53:16.035Z,1.98
2022-09-04T05:58:33.127Z,1.98
2022-09-04T06:03:59.723Z,1.80
2022-09-04T06:09:26.562Z,2.00
2022-09-04T06:14:46.208Z,1.98
2022-09-04T06:20:03.133Z,1.70
2022-09-04T06:25:09.333Z,2.10
2022-09-04T06:30:17.836Z,2.50
2022-09-04T06:35:28.240Z,1.70
2022-09-04T06:40:57.941Z,2.05
2022-09-04T06:46:21.276Z,2.60
2022-09-04T06:51:32.832Z,1.42
2022-09-04T06:57:08.262Z,1.20
2022-09-04T07:02:35.071Z,1.30
2022-09-04T07:07:49.802Z,1.10
2022-09-04T07:13:23.726Z,3.92
2022-09-04T07:18:48.506Z,1.88
2022-09-04T07:24:00.848Z,1.20
2022-09-04T07:29:30.836Z,1.90
2022-09-04T07:35:00.643Z,1.00
2022-09-04T07:40:03.767Z,1.08
2022-09-04T07:45:27.845Z,1.87
2022-09-04T07:50:35.558Z,1.85
2022-09-04T07:55:49.167Z,2.43
2022-09-04T08:00:56.920Z,4.10
2022-09-04T08:06:35.561Z,3.70
2022-09-04T08:12:06.174Z,3.25
2022-09-04T08:17:25.932Z,3.30
2022-09-04T08:22:47.897Z,3.15
2022-09-04T08:27:54.083Z,2.75
2022-09-04T08:33:12.671Z,3.60
2022-09-04T08:38:48.587Z,1.80
2022-09-04T08:44:21.232Z,2.97
2022-09-04T08:50:01.769Z,1.50
2022-09-04T08:55:26.343Z,1.20
2022-09-04T09:00:35.517Z,1.20
2022-09-04T09:06:06.691Z,1.20
2022-09-04T09:11:38.399Z,1.30
2022-09-04T09:17:12.481Z,1.25
2022-09-04T09:23:08.368Z,1.10
2022-09-04T09:28:16.452Z,1.10
2022-09-04T09:33:18.248Z,0.90
2022-09-04T09:38:35.410Z,1.20
2022-09-04T09:44:08.351Z,1.20
2022-09-04T09:49:25.419Z,1.20
2022-09-04T09:55:03.309Z,1.33
2022-09-04T10:05:31.354Z,2.25
2022-09-04T10:10:55.208Z,1.92
2022-09-04T10:16:10.957Z,2.00
2022-09-04T10:21:39.026Z,1.50
2022-09-04T10:27:15.108Z,1.65
2022-09-04T10:32:33.183Z,1.95
2022-09-04T10:37:50.279Z,1.60
2022-09-04T10:42:54.939Z,1.63
2022-09-04T10:48:28.333Z,2.30
2022-09-04T10:53:42.950Z,2.30
2022-09-04T10:58:59.762Z,1.98
2022-09-04T11:04:27.327Z,1.90
2022-09-04T11:09:45.900Z,3.03
2022-09-04T11:20:04.226Z,1.30
2022-09-04T11:25:19.021Z,1.23
2022-09-04T11:30:23.771Z,3.38
2022-09-04T11:36:10.015Z,1.40
2022-09-04T11:41:54.318Z,0.90
2022-09-04T11:47:25.323Z,0.80
2022-09-04T11:52:36.207Z,0.90
2022-09-04T11:58:00.375Z,1.00
2022-09-04T12:03:11.305Z,1.00
2022-09-04T12:08:31.550Z,1.30
2022-09-04T12:13:44.954Z,1.10
2022-09-04T12:19:42.560Z,1.85
2022-09-04T12:25:12.512Z,1.30
2022-09-04T12:30:35.563Z,0.98
2022-09-04T12:35:39.038Z,1.10
2022-09-04T12:40:46.671Z,1.00
2022-09-04T12:46:15.203Z,1.20
2022-09-04T12:56:38.194Z,1.08
2022-09-04T13:01:51.585Z,1.60
2022-09-04T13:07:15.990Z,1.95
2022-09-04T13:12:42.750Z,1.70
2022-09-04T13:17:49.159Z,1.60
2022-09-04T13:23:14.428Z,1.30
2022-09-04T13:28:23.561Z,1.10
2022-09-04T13:33:40.024Z,1.50
2022-09-04T13:38:50.975Z,1.80
2022-09-04T13:44:11.501Z,1.52
2022-09-04T13:49:18.706Z,1.80
2022-09-04T13:54:30.313Z,1.60
2022-09-04T13:59:32.843Z,1.52
2022-09-04T14:04:43.999Z,1.63
2022-09-04T14:09:49.384Z,1.50
2022-09-04T14:15:01.101Z,1.45
2022-09-04T14:20:20.594Z,1.38
2022-09-04T14:25:40.040Z,1.70
2022-09-04T14:36:06.134Z,1.80
2022-09-04T14:41:11.028Z,2.67
2022-09-04T14:46:32.468Z,1.65
2022-09-04T14:51:45.995Z,1.80
2022-09-04T14:57:14.626Z,4.78
2022-09-04T15:02:22.316Z,7.35
2022-09-04T15:07:41.552Z,8.80
2022-09-04T15:12:52.186Z,6.82
2022-09-04T15:18:10.647Z,5.57
2022-09-04T15:28:46.451Z,4.47
2022-09-04T15:33:49.125Z,2.92
2022-09-04T15:39:01.208Z,2.28
2022-09-04T15:44:54.107Z,3.03
2022-09-04T15:50:04.420Z,2.90
2022-09-04T15:55:32.746Z,2.30
2022-09-04T16:00:56.560Z,3.25
2022-09-04T16:06:05.292Z,2.10
2022-09-04T16:11:21.844Z,1.80
2022-09-04T16:16:32.702Z,2.40
2022-09-04T16:21:53.637Z,3.70
2022-09-04T16:26:56.239Z,3.80
2022-09-04T16:31:59.076Z,3.25
2022-09-04T16:37:24.619Z,2.92
2022-09-04T16:42:42.122Z,3.92
2022-09-04T16:47:52.157Z,4.68
2022-09-04T16:53:13.567Z,5.55
2022-09-04T16:58:34.980Z,4.60
2022-09-04T17:03:46.268Z,3.80
2022-09-04T17:09:08.724Z,4.00
2022-09-04T17:14:47.360Z,3.60
2022-09-04T17:20:03.102Z,2.67
2022-09-04T17:29:12.479Z,2.95
2022-09-04T17:30:44.988Z,3.83
2022-09-04T17:40:33.802Z,3.78
2022-09-04T17:41:53.098Z,3.72
2022-09-04T17:47:32.883Z,5.40
2022-09-04T17:52:55.163Z,5.38
2022-09-04T17:58:10.544Z,4.75
2022-09-04T18:04:02.825Z,4.70
2022-09-04T18:09:42.864Z,6.35
2022-09-04T18:15:32.341Z,10.32
2022-09-04T18:20:57.406Z,10.35
2022-09-04T18:26:17.395Z,7.80
2022-09-04T18:37:13.235Z,7.30
2022-09-04T18:37:44.141Z,8.30
2022-09-04T18:47:46.510Z,7.68
2022-09-04T18:50:31.757Z,9.63
2022-09-04T18:53:51.578Z,8.65
2022-09-04T18:59:16.986Z,8.88
2022-09-04T19:04:41.944Z,8.20
2022-09-04T19:09:56.198Z,7.20
2022-09-04T19:15:00.310Z,6.68
2022-09-04T19:20:13.647Z,6.53
2022-09-04T19:25:28.408Z,6.82
2022-09-04T19:30:44.198Z,7.38
2022-09-04T19:36:03.549Z,7.13
2022-09-04T19:45:56.530Z,6.57
2022-09-04T19:47:28.851Z,6.90
2022-09-04T19:53:34.342Z,6.55
2022-09-04T19:58:10.754Z,6.32
2022-09-04T20:03:29.435Z,5.15
2022-09-04T20:08:37.656Z,4.80
2022-09-04T20:13:46.414Z,4.90
2022-09-04T20:19:12.511Z,5.35
2022-09-04T20:24:37.571Z,4.70
2022-09-04T20:29:50.427Z,4.05
2022-09-04T20:35:13.013Z,3.97
2022-09-04T20:40:51.755Z,4.25
2022-09-04T20:52:29.790Z,4.18
2022-09-04T20:53:07.228Z,3.35
2022-09-04T21:00:31.445Z,3.00
2022-09-04T21:03:17.246Z,3.33
2022-09-04T21:08:19.917Z,3.42
2022-09-04T21:13:37.539Z,3.25
2022-09-04T21:18:48.602Z,3.50
2022-09-04T21:24:38.144Z,2.90
2022-09-04T21:30:06.902Z,3.67
2022-09-04T21:40:50.368Z,2.75
2022-09-04T21:46:07.775Z,2.40
2022-09-04T21:51:28.659Z,2.55
2022-09-04T22:02:25.187Z,2.05
2022-09-04T22:02:51.315Z,2.20
2022-09-04T22:13:27.142Z,1.80
2022-09-04T22:14:18.828Z,1.63
2022-09-04T22:20:09.047Z,1.90
2022-09-04T22:25:33.703Z,2.45
2022-09-04T22:31:10.657Z,1.90
2022-09-04T22:36:45.198Z,1.90
2022-09-04T22:42:20.465Z,1.90
2022-09-04T22:47:40.716Z,1.80
2022-09-04T22:53:20.045Z,2.00
2022-09-04T22:59:10.533Z,1.75
2022-09-04T23:05:04.035Z,1.85
2022-09-04T23:13:52.295Z,1.50
2022-09-04T23:16:14.510Z,1.83
2022-09-04T23:26:52.677Z,1.90
2022-09-04T23:27:28.462Z,2.10
2022-09-04T23:32:45.516Z,2.05
2022-09-04T23:38:21.332Z,1.58
2022-09-04T23:43:42.281Z,1.60
2022-09-04T23:49:14.668Z,1.85
2022-09-04T23:54:35.396Z,1.63
